createdAt,value
2023-01-03T00:00:17.469Z,5.82
2023-01-03T00:05:10.286Z,5.95
2023-01-03T00:10:02.675Z,5.99
2023-01-03T00:15:00.843Z,6.00
2023-01-03T00:19:56.132Z,6.05
2023-01-03T00:24:51.955Z,6.02
2023-01-03T00:29:43.083Z,6.00
2023-01-03T00:34:36.863Z,5.94
2023-01-03T00:39:28.427Z,5.89
2023-01-03T00:44:19.233Z,5.86
2023-01-03T00:49:13.002Z,5.81
2023-01-03T00:54:09.452Z,5.75
2023-01-03T00:59:03.207Z,5.72
2023-01-03T01:04:14.860Z,5.60
2023-01-03T01:09:21.455Z,5.48
2023-01-03T01:14:23.898Z,5.47
2023-01-03T01:19:15.765Z,5.44
2023-01-03T01:24:12.875Z,5.38
2023-01-03T01:29:13.950Z,5.28
2023-01-03T01:34:07.494Z,5.18
2023-01-03T01:39:05.954Z,5.16
2023-01-03T01:44:12.589Z,5.04
2023-01-03T01:49:19.267Z,4.95
2023-01-03T01:54:26.332Z,4.91
2023-01-03T01:59:23.483Z,4.81
2023-01-03T02:04:24.608Z,4.62
2023-01-03T02:09:17.804Z,4.60
2023-01-03T02:14:27.813Z,4.58
2023-01-03T02:19:53.627Z,4.55
2023-01-03T02:25:18.488Z,4.52
2023-01-03T02:30:39.027Z,4.48
2023-01-03T02:35:40.615Z,4.38
2023-01-03T02:40:41.036Z,4.41
2023-01-03T02:46:04.388Z,4.34
2023-01-03T02:51:11.299Z,4.31
2023-01-03T02:56:10.024Z,4.25
2023-01-03T03:01:07.015Z,4.22
2023-01-03T03:06:19.101Z,4.20
2023-01-03T03:11:27.341Z,4.09
2023-01-03T03:16:49.561Z,4.13
2023-01-03T03:22:00.550Z,4.12
2023-01-03T03:26:55.688Z,4.11
2023-01-03T03:31:51.393Z,4.09
2023-01-03T03:36:50.534Z,4.10
2023-01-03T03:42:05.507Z,4.07
2023-01-03T03:47:24.556Z,4.07
2023-01-03T03:52:27.331Z,4.06
2023-01-03T03:57:28.621Z,4.01
2023-01-03T04:02:24.579Z,4.02
2023-01-03T04:07:26.373Z,3.92
2023-01-03T04:12:21.474Z,3.96
2023-01-03T04:17:23.368Z,3.91
2023-01-03T04:22:25.582Z,3.83
2023-01-03T04:27:24.998Z,3.90
2023-01-03T04:32:32.793Z,3.87
2023-01-03T04:37:40.766Z,3.76
2023-01-03T04:42:50.855Z,3.79
2023-01-03T04:47:46.315Z,3.81
2023-01-03T04:52:51.397Z,3.80
2023-01-03T04:57:51.695Z,3.80
2023-01-03T05:02:50.554Z,3.82
2023-01-03T05:07:40.706Z,3.83
2023-01-03T05:12:32.825Z,3.91
2023-01-03T05:17:26.588Z,3.99
2023-01-03T05:22:30.359Z,4.04
2023-01-03T05:27:24.920Z,4.12
2023-01-03T05:32:24.251Z,4.19
2023-01-03T05:37:32.763Z,4.12
2023-01-03T05:42:26.134Z,4.19
2023-01-03T05:47:21.407Z,4.31
2023-01-03T05:52:17.529Z,4.49
2023-01-03T05:57:13.439Z,4.54
2023-01-03T06:02:06.033Z,4.54
2023-01-03T06:06:57.329Z,4.68
2023-01-03T06:11:50.298Z,4.73
2023-01-03T06:16:57.572Z,4.67
2023-01-03T06:21:49.294Z,4.82
2023-01-03T06:26:44.518Z,4.78
2023-01-03T06:31:35.230Z,4.88
2023-01-03T06:36:34.556Z,4.92
2023-01-03T06:41:28.964Z,4.88
2023-01-03T06:46:32.927Z,4.97
2023-01-03T06:51:43.020Z,5.04
2023-01-03T06:56:38.666Z,4.98
2023-01-03T07:01:40.679Z,5.01
2023-01-03T07:06:47.762Z,5.01
2023-01-03T07:11:45.869Z,5.07
2023-01-03T07:16:46.215Z,5.07
2023-01-03T07:21:46.594Z,5.07
2023-01-03T07:26:47.827Z,5.08
2023-01-03T07:31:43.253Z,5.09
2023-01-03T07:36:34.450Z,5.16
2023-01-03T07:41:52.647Z,5.20
2023-01-03T07:46:43.520Z,5.23
2023-01-03T07:51:34.294Z,5.08
2023-01-03T07:56:29.818Z,5.35
2023-01-03T08:01:39.964Z,5.39
2023-01-03T08:06:41.975Z,5.47
2023-01-03T08:11:47.830Z,5.47
2023-01-03T08:16:43.171Z,5.56
2023-01-03T08:21:35.392Z,5.63
2023-01-03T08:26:39.485Z,5.70
2023-01-03T08:31:35.783Z,5.72
2023-01-03T08:36:32.079Z,5.79
2023-01-03T08:41:31.574Z,5.71
2023-01-03T08:46:35.425Z,5.92
2023-01-03T08:51:27.286Z,5.96
2023-01-03T08:56:24.813Z,5.94
2023-01-03T09:01:19.158Z,5.99
2023-01-03T09:06:23.382Z,6.08
2023-01-03T09:11:19.154Z,6.15
2023-01-03T09:16:17.322Z,6.19
2023-01-03T09:21:17.079Z,6.23
2023-01-03T09:26:12.661Z,6.23
2023-01-03T09:31:03.605Z,6.28
2023-01-03T09:35:59.214Z,6.34
2023-01-03T09:41:02.091Z,6.48
2023-01-03T09:46:04.981Z,6.44
2023-01-03T09:51:18.220Z,6.56
2023-01-03T09:56:35.349Z,6.59
2023-01-03T10:01:55.249Z,6.65
2023-01-03T10:07:02.216Z,6.70
2023-01-03T10:12:09.739Z,6.71
2023-01-03T10:17:16.160Z,6.83
2023-01-03T10:22:15.704Z,6.89
2023-01-03T10:27:21.638Z,7.00
2023-01-03T10:32:30.907Z,7.10
2023-01-03T10:37:26.001Z,7.17
2023-01-03T10:42:29.156Z,7.21
2023-01-03T10:47:22.477Z,7.16
2023-01-03T10:52:17.102Z,7.31
2023-01-03T10:57:14.949Z,7.33
2023-01-03T11:02:20.554Z,7.33
2023-01-03T11:07:27.790Z,7.41
2023-01-03T11:12:26.780Z,7.47
2023-01-03T11:17:19.652Z,7.48
2023-01-03T11:22:25.151Z,7.59
2023-01-03T11:27:26.946Z,7.62
2023-01-03T11:32:32.619Z,7.68
2023-01-03T11:37:40.924Z,7.76
2023-01-03T11:42:40.704Z,7.78
2023-01-03T11:47:46.094Z,7.93
2023-01-03T11:52:51.163Z,8.08
2023-01-03T11:57:51.944Z,8.09
2023-01-03T12:03:11.054Z,8.02
2023-01-03T12:08:26.319Z,8.12
2023-01-03T12:13:37.064Z,8.22
2023-01-03T12:18:36.278Z,8.28
2023-01-03T12:24:25.844Z,8.33
2023-01-03T12:29:23.853Z,8.27
2023-01-03T12:34:30.976Z,8.24
2023-01-03T12:39:42.088Z,8.22
2023-01-03T12:44:47.331Z,8.21
2023-01-03T12:50:08.799Z,8.25
2023-01-03T12:55:19.088Z,8.33
2023-01-03T13:00:29.871Z,8.43
2023-01-03T13:05:32.367Z,8.50
2023-01-03T13:10:36.282Z,8.75
2023-01-03T13:15:37.785Z,8.75
2023-01-03T13:20:46.381Z,8.73
2023-01-03T13:25:46.221Z,8.75
2023-01-03T13:30:47.873Z,8.74
2023-01-03T13:35:54.687Z,8.75
2023-01-03T13:41:19.509Z,8.73
2023-01-03T13:46:26.163Z,8.75
2023-01-03T13:51:51.062Z,8.75
2023-01-03T13:57:12.459Z,8.76
2023-01-03T14:02:47.106Z,8.84
2023-01-03T14:08:00.870Z,8.85
2023-01-03T14:13:21.441Z,8.65
2023-01-03T14:18:32.473Z,8.74
2023-01-03T14:28:41.111Z,8.68
2023-01-03T14:33:48.189Z,8.67
2023-01-03T14:38:49.684Z,8.59
2023-01-03T14:43:48.798Z,8.46
2023-01-03T14:48:41.393Z,8.45
2023-01-03T14:53:34.731Z,8.40
2023-01-03T14:58:36.017Z,8.24
2023-01-03T15:03:35.788Z,8.33
2023-01-03T15:08:32.678Z,8.23
2023-01-03T15:13:32.151Z,8.28
2023-01-03T15:18:47.653Z,8.24
2023-01-03T15:23:45.757Z,8.21
2023-01-03T15:28:53.657Z,8.18
2023-01-03T15:33:53.036Z,8.12
2023-01-03T15:38:53.418Z,8.05
2023-01-03T15:43:51.682Z,7.72
2023-01-03T15:48:46.877Z,7.96
2023-01-03T15:53:46.377Z,7.94
2023-01-03T15:58:53.878Z,7.95
2023-01-03T16:03:47.677Z,7.94
2023-01-03T16:08:47.340Z,7.94
2023-01-03T16:13:45.321Z,7.94
2023-01-03T16:18:43.496Z,7.92
2023-01-03T16:23:39.983Z,7.90
2023-01-03T16:28:36.146Z,7.90
2023-01-03T16:33:34.563Z,7.47
2023-01-03T16:38:41.540Z,7.82
2023-01-03T16:43:37.915Z,7.79
2023-01-03T16:48:40.139Z,7.76
2023-01-03T16:53:53.950Z,7.82
2023-01-03T16:58:52.580Z,7.89
2023-01-03T17:03:49.112Z,7.88
2023-01-03T17:08:45.495Z,7.94
2023-01-03T17:13:37.799Z,7.88
2023-01-03T17:18:32.867Z,7.97
2023-01-03T17:23:26.018Z,7.97
2023-01-03T17:28:20.870Z,7.98
2023-01-03T17:33:16.170Z,7.72
2023-01-03T17:38:31.101Z,7.99
2023-01-03T17:43:26.556Z,7.97
2023-01-03T17:48:29.692Z,7.55
2023-01-03T17:53:31.941Z,8.02
2023-01-03T17:58:34.878Z,8.00
2023-01-03T18:03:29.293Z,8.05
2023-01-03T18:08:31.795Z,8.05
2023-01-03T18:13:29.851Z,8.10
2023-01-03T18:18:30.405Z,8.09
2023-01-03T18:23:25.815Z,8.11
2023-01-03T18:28:29.568Z,8.11
2023-01-03T18:33:23.242Z,8.14
2023-01-03T18:38:28.894Z,8.14
2023-01-03T18:43:32.343Z,8.11
2023-01-03T18:48:27.249Z,8.13
2023-01-03T18:53:22.435Z,8.13
2023-01-03T18:58:43.172Z,8.08
2023-01-03T19:03:38.249Z,8.18
2023-01-03T19:08:50.065Z,8.15
2023-01-03T19:13:55.284Z,8.23
2023-01-03T19:18:50.935Z,8.25
2023-01-03T19:23:48.749Z,8.27
2023-01-03T19:28:47.167Z,8.26
2023-01-03T19:33:44.177Z,8.23
2023-01-03T19:38:41.609Z,8.24
2023-01-03T19:43:45.639Z,8.28
2023-01-03T19:48:49.355Z,8.28
2023-01-03T19:53:43.359Z,8.26
2023-01-03T19:58:43.308Z,8.39
2023-01-03T20:03:43.448Z,8.41
2023-01-03T20:08:44.359Z,8.44
2023-01-03T20:13:37.321Z,8.41
2023-01-03T20:18:44.248Z,8.54
2023-01-03T20:23:49.704Z,8.48
2023-01-03T20:28:39.830Z,8.60
2023-01-03T20:33:34.005Z,8.61
2023-01-03T20:38:30.072Z,8.61
2023-01-03T20:43:30.710Z,8.64
2023-01-03T20:48:32.074Z,8.64
2023-01-03T20:53:25.752Z,8.68
2023-01-03T20:58:25.406Z,8.67
2023-01-03T21:03:24.479Z,8.67
2023-01-03T21:09:01.199Z,8.84
2023-01-03T21:13:57.811Z,8.85
2023-01-03T21:18:51.091Z,8.79
2023-01-03T21:23:40.870Z,8.82
2023-01-03T21:28:31.280Z,8.71
2023-01-03T21:33:25.479Z,8.81
2023-01-03T21:38:21.453Z,8.80
2023-01-03T21:43:16.162Z,8.84
2023-01-03T21:48:09.147Z,8.84
2023-01-03T21:53:04.726Z,8.92
2023-01-03T21:58:01.918Z,8.96
2023-01-03T22:03:06.137Z,8.99
2023-01-03T22:07:58.010Z,9.01
2023-01-03T22:12:50.387Z,9.02
2023-01-03T22:17:47.738Z,9.03
2023-01-03T22:22:38.908Z,8.99
2023-01-03T22:27:31.726Z,9.01
2023-01-03T22:32:28.068Z,8.99
2023-01-03T22:37:44.950Z,9.00
2023-01-03T22:42:36.768Z,8.96
2023-01-03T22:47:30.653Z,8.96
2023-01-03T22:52:27.550Z,8.90
2023-01-03T22:57:34.001Z,8.88
2023-01-03T23:02:32.286Z,8.84
2023-01-03T23:07:30.340Z,8.77
2023-01-03T23:12:34.588Z,8.77
2023-01-03T23:17:39.593Z,8.65
2023-01-03T23:22:29.562Z,8.69
2023-01-03T23:27:21.238Z,8.67
2023-01-03T23:32:21.997Z,8.62
2023-01-03T23:37:15.621Z,8.62
2023-01-03T23:42:08.245Z,8.57
2023-01-03T23:47:05.003Z,8.53
2023-01-03T23:52:00.425Z,8.53
2023-01-03T23:56:53.751Z,8.53
